Time;durP1;ratioP1;P1;durP2;ratioP2;P2;SDS_P1;SDS_P2;PMS_P1;PMS_P2;Temp;Humidity;BMP_temperature;BMP_pressure;BME280_temperature;BME280_humidity;BME280_pressure;Samples;Min_cycle;Max_cycle;Signal;HPM_P1;HPM_P2
2024/01/28 00:00:37;;;;;;;97.37;68.70;;;;;;;;;;5049899;28;20056;-66
2024/01/28 00:03:03;;;;;;;99.03;66.70;;;;;;;;;;5049994;28;20120;-65
2024/01/28 00:05:29;;;;;;;100.28;67.18;;;;;;;;;;5049633;28;20029;-65
2024/01/28 00:07:55;;;;;;;94.22;65.53;;;;;;;;;;5045207;28;20035;-65
2024/01/28 00:10:21;;;;;;;91.43;64.10;;;;;;;;;;5049168;28;20025;-66
2024/01/28 00:12:48;;;;;;;93.37;65.63;;;;;;;;;;5034849;28;20490;-65
2024/01/28 00:15:14;;;;;;;97.47;67.43;;;;;;;;;;5038312;28;20029;-65
2024/01/28 00:17:40;;;;;;;89.80;62.50;;;;;;;;;;5050275;28;20594;-66
2024/01/28 00:20:06;;;;;;;93.30;65.37;;;;;;;;;;5049477;28;20070;-65
2024/01/28 00:22:32;;;;;;;89.00;64.43;;;;;;;;;;5049161;28;20025;-64
2024/01/28 00:24:59;;;;;;;92.10;64.27;;;;;;;;;;5049212;28;20161;-64
2024/01/28 00:27:25;;;;;;;95.77;64.77;;;;;;;;;;5048970;28;20164;-65
2024/01/28 00:29:51;;;;;;;94.37;64.63;;;;;;;;;;5048778;28;20029;-65
2024/01/28 00:32:17;;;;;;;92.33;64.50;;;;;;;;;;5049103;28;20025;-65
2024/01/28 00:34:43;;;;;;;93.23;64.50;;;;;;;;;;5049302;28;20044;-65
2024/01/28 00:37:10;;;;;;;94.63;65.43;;;;;;;;;;5048165;28;20025;-64
2024/01/28 00:39:36;;;;;;;92.43;64.47;;;;;;;;;;5049207;28;20586;-66
2024/01/28 00:42:04;;;;;;;95.90;65.27;;;;;;;;;;5048724;28;20057;-65
2024/01/28 00:44:30;;;;;;;96.77;63.53;;;;;;;;;;5048889;28;20025;-65
2024/01/28 00:46:57;;;;;;;95.77;66.23;;;;;;;;;;5034210;28;20087;-64
2024/01/28 00:49:29;;;;;;;97.90;68.40;;;;;;;;;;5048419;28;20061;-65
2024/01/28 00:51:55;;;;;;;96.93;66.43;;;;;;;;;;5048455;28;20036;-65
2024/01/28 00:54:21;;;;;;;94.27;67.97;;;;;;;;;;5048994;28;20047;-65
2024/01/28 00:56:48;;;;;;;100.43;67.63;;;;;;;;;;5048465;28;20045;-66
2024/01/28 00:59:14;;;;;;;97.53;66.53;;;;;;;;;;5042457;28;20110;-65
2024/01/28 01:01:43;;;;;;;98.80;68.40;;;;;;;;;;5048438;28;20151;-65
2024/01/28 01:04:09;;;;;;;95.40;67.97;;;;;;;;;;5048398;28;20033;-65
2024/01/28 01:06:37;;;;;;;103.77;69.57;;;;;;;;;;5047130;28;20449;-65
2024/01/28 01:09:03;;;;;;;98.80;68.77;;;;;;;;;;5048720;28;20067;-65
2024/01/28 01:11:29;;;;;;;99.33;72.10;;;;;;;;;;5034315;28;20020;-65
2024/01/28 01:13:55;;;;;;;108.50;73.70;;;;;;;;;;5048503;28;20371;-65
2024/01/28 01:16:21;;;;;;;101.47;72.07;;;;;;;;;;5048760;28;20017;-65
2024/01/28 01:18:47;;;;;;;105.40;73.73;;;;;;;;;;5038923;28;20079;-66
2024/01/28 01:21:16;;;;;;;101.73;72.17;;;;;;;;;;5044230;28;20071;-66
2024/01/28 01:23:42;;;;;;;105.27;73.37;;;;;;;;;;5049402;28;20099;-66
2024/01/28 01:26:09;;;;;;;108.20;73.30;;;;;;;;;;5048557;28;20090;-66
2024/01/28 01:28:35;;;;;;;110.43;74.60;;;;;;;;;;5042455;28;20467;-66
2024/01/28 01:31:05;;;;;;;106.80;75.97;;;;;;;;;;5040882;28;20471;-66
2024/01/28 01:33:31;;;;;;;106.27;73.03;;;;;;;;;;5043609;28;20069;-66
2024/01/28 01:35:57;;;;;;;100.13;70.90;;;;;;;;;;5039570;28;20414;-66
2024/01/28 01:38:23;;;;;;;101.57;69.93;;;;;;;;;;5046676;28;20398;-66
2024/01/28 01:40:55;;;;;;;98.83;70.30;;;;;;;;;;5048101;28;20021;-66
2024/01/28 01:43:21;;;;;;;96.47;67.87;;;;;;;;;;5047971;28;20036;-66
2024/01/28 01:45:47;;;;;;;93.80;65.67;;;;;;;;;;5030195;28;20026;-66
2024/01/28 01:48:13;;;;;;;92.13;66.77;;;;;;;;;;5035187;28;20041;-64
2024/01/28 01:50:40;;;;;;;94.07;66.87;;;;;;;;;;5052289;28;20488;-65
2024/01/28 01:53:06;;;;;;;89.87;63.00;;;;;;;;;;5045083;28;20410;-65
2024/01/28 01:55:36;;;;;;;88.23;64.27;;;;;;;;;;5052135;28;20021;-65
2024/01/28 01:58:03;;;;;;;93.23;64.37;;;;;;;;;;5046304;28;20094;-66
2024/01/28 02:00:29;;;;;;;86.57;61.37;;;;;;;;;;5034920;28;20037;-66
2024/01/28 02:02:55;;;;;;;83.50;61.73;;;;;;;;;;5044511;28;20124;-66
2024/01/28 02:05:21;;;;;;;80.87;59.37;;;;;;;;;;5044683;28;20140;-66
2024/01/28 02:07:47;;;;;;;82.67;58.93;;;;;;;;;;5047053;28;20086;-65
2024/01/28 02:10:14;;;;;;;76.83;57.83;;;;;;;;;;5051447;28;20040;-66
2024/01/28 02:12:43;;;;;;;78.63;56.13;;;;;;;;;;5050442;28;20351;-65
2024/01/28 02:15:09;;;;;;;75.53;53.50;;;;;;;;;;5047129;28;20040;-66
2024/01/28 02:17:36;;;;;;;70.70;52.97;;;;;;;;;;5049267;28;20025;-65
2024/01/28 02:20:02;;;;;;;67.47;50.07;;;;;;;;;;5045594;28;20041;-66
2024/01/28 02:22:29;;;;;;;69.07;50.73;;;;;;;;;;5047371;28;20507;-66
2024/01/28 02:24:57;;;;;;;71.27;50.23;;;;;;;;;;5047512;28;20032;-66
2024/01/28 02:27:23;;;;;;;70.80;50.83;;;;;;;;;;5046184;28;20033;-66
2024/01/28 02:29:49;;;;;;;73.97;53.07;;;;;;;;;;5049859;28;20040;-65
2024/01/28 02:32:18;;;;;;;65.97;47.77;;;;;;;;;;5051290;28;20040;-65
2024/01/28 02:34:45;;;;;;;66.60;49.87;;;;;;;;;;5051891;28;20051;-65
2024/01/28 02:37:11;;;;;;;70.27;51.70;;;;;;;;;;5051458;28;20025;-65
2024/01/28 02:39:37;;;;;;;72.37;52.57;;;;;;;;;;5054787;28;20037;-65
2024/01/28 02:42:03;;;;;;;71.43;51.27;;;;;;;;;;5052488;28;20414;-65
2024/01/28 02:44:30;;;;;;;70.60;49.87;;;;;;;;;;5041537;28;20493;-65
2024/01/28 02:46:56;;;;;;;67.90;50.80;;;;;;;;;;5041184;28;20309;-66
2024/01/28 02:49:25;;;;;;;70.23;49.83;;;;;;;;;;5031506;28;20036;-65
2024/01/28 02:51:51;;;;;;;67.57;48.67;;;;;;;;;;5038309;28;20021;-66
2024/01/28 02:54:17;;;;;;;69.07;49.43;;;;;;;;;;5038961;28;20846;-65
2024/01/28 02:56:45;;;;;;;66.07;48.83;;;;;;;;;;5037279;28;20110;-65
2024/01/28 02:59:13;;;;;;;66.87;49.03;;;;;;;;;;5051276;28;20088;-65
2024/01/28 03:01:46;;;;;;;67.67;51.30;;;;;;;;;;5051223;28;20016;-65
2024/01/28 03:04:12;;;;;;;65.13;49.90;;;;;;;;;;5051330;28;20549;-65
2024/01/28 03:06:38;;;;;;;68.27;49.03;;;;;;;;;;5051949;28;20033;-65
2024/01/28 03:09:04;;;;;;;67.77;50.77;;;;;;;;;;5049671;28;20021;-65
2024/01/28 03:11:30;;;;;;;67.20;48.93;;;;;;;;;;5050276;28;20402;-65
2024/01/28 03:13:56;;;;;;;66.50;49.27;;;;;;;;;;5050397;28;20394;-65
2024/01/28 03:16:23;;;;;;;72.37;51.23;;;;;;;;;;5046035;28;20102;-65
2024/01/28 03:18:49;;;;;;;68.27;51.20;;;;;;;;;;5051353;28;20028;-66
2024/01/28 03:21:16;;;;;;;69.27;49.27;;;;;;;;;;5051152;28;20025;-65
2024/01/28 03:23:42;;;;;;;68.17;48.90;;;;;;;;;;5050551;28;20582;-66
2024/01/28 03:26:11;;;;;;;71.60;50.63;;;;;;;;;;5045852;28;20102;-65
2024/01/28 03:28:37;;;;;;;63.87;48.37;;;;;;;;;;5047155;28;20044;-65
2024/01/28 03:31:03;;;;;;;68.10;48.23;;;;;;;;;;5039454;28;20021;-65
2024/01/28 03:33:30;;;;;;;70.17;48.97;;;;;;;;;;5050315;28;20044;-65
2024/01/28 03:35:56;;;;;;;72.87;50.37;;;;;;;;;;5050112;28;20248;-65
2024/01/28 03:38:22;;;;;;;70.80;47.67;;;;;;;;;;5050393;28;20029;-65
2024/01/28 03:40:51;;;;;;;79.10;47.93;;;;;;;;;;5050445;28;20459;-65
2024/01/28 03:43:17;;;;;;;71.40;48.10;;;;;;;;;;5048607;28;20079;-65
2024/01/28 03:45:43;;;;;;;79.77;48.93;;;;;;;;;;5046995;28;20052;-65
2024/01/28 03:48:09;;;;;;;81.03;49.67;;;;;;;;;;5038928;28;20036;-65
2024/01/28 03:50:35;;;;;;;71.80;49.23;;;;;;;;;;5048305;28;20052;-66
2024/01/28 03:53:01;;;;;;;92.83;51.87;;;;;;;;;;5038628;28;20072;-65
2024/01/28 03:55:27;;;;;;;84.60;50.00;;;;;;;;;;5050096;28;20032;-66
2024/01/28 03:57:53;;;;;;;97.23;53.07;;;;;;;;;;5049706;28;20118;-66
2024/01/28 04:00:19;;;;;;;90.53;51.50;;;;;;;;;;5049993;28;20041;-65
2024/01/28 04:02:45;;;;;;;81.87;53.63;;;;;;;;;;5049435;28;20025;-65
2024/01/28 04:05:11;;;;;;;75.33;53.20;;;;;;;;;;5048196;28;20032;-65
2024/01/28 04:07:37;;;;;;;91.83;52.43;;;;;;;;;;5050046;28;20710;-66
2024/01/28 04:10:04;;;;;;;95.73;55.63;;;;;;;;;;5050191;28;20033;-65
2024/01/28 04:12:30;;;;;;;83.53;51.30;;;;;;;;;;5048558;28;20032;-65
2024/01/28 04:14:56;;;;;;;86.40;54.47;;;;;;;;;;5049213;28;20041;-65
2024/01/28 04:17:22;;;;;;;88.83;54.60;;;;;;;;;;5037745;28;20059;-65
2024/01/28 04:19:48;;;;;;;84.57;54.20;;;;;;;;;;5046945;28;20036;-65
2024/01/28 04:22:14;;;;;;;86.53;53.27;;;;;;;;;;5049176;28;20171;-66
2024/01/28 04:24:40;;;;;;;96.30;55.13;;;;;;;;;;5035312;28;20065;-65
2024/01/28 04:27:06;;;;;;;85.37;53.80;;;;;;;;;;5049841;28;20142;-65
2024/01/28 04:29:32;;;;;;;90.60;54.73;;;;;;;;;;5035404;28;20032;-65
2024/01/28 04:31:58;;;;;;;98.07;54.97;;;;;;;;;;5049087;28;20033;-65
2024/01/28 04:34:24;;;;;;;85.10;53.47;;;;;;;;;;5049244;28;20497;-65
2024/01/28 04:36:50;;;;;;;89.63;55.43;;;;;;;;;;5045168;28;20032;-65
2024/01/28 04:39:18;;;;;;;94.10;57.20;;;;;;;;;;5043664;28;20033;-66
2024/01/28 04:41:44;;;;;;;93.90;56.17;;;;;;;;;;5056665;28;20364;-65
2024/01/28 04:44:10;;;;;;;90.17;56.50;;;;;;;;;;5049594;28;20159;-65
2024/01/28 04:59:04;;;;;;;90.97;55.80;;;;;;;;;;5027240;28;20087;-67
2024/01/28 05:01:30;;;;;;;88.17;55.17;;;;;;;;;;5049120;28;20132;-66
2024/01/28 05:03:56;;;;;;;108.77;60.17;;;;;;;;;;5043583;28;20117;-66
2024/01/28 05:06:22;;;;;;;93.53;59.90;;;;;;;;;;5045955;28;20017;-66
2024/01/28 05:08:48;;;;;;;85.90;55.87;;;;;;;;;;5048671;28;20029;-66
2024/01/28 05:11:14;;;;;;;91.90;54.90;;;;;;;;;;5048398;28;20494;-66
2024/01/28 05:13:40;;;;;;;90.47;56.30;;;;;;;;;;5047059;28;20036;-66
2024/01/28 05:16:06;;;;;;;88.27;55.27;;;;;;;;;;5037181;28;20036;-66
2024/01/28 05:22:07;;;;;;;96.33;54.73;;;;;;;;;;5045412;28;20159;-66
2024/01/28 05:24:33;;;;;;;86.60;53.33;;;;;;;;;;5043823;28;20078;-66
2024/01/28 05:26:59;;;;;;;88.37;53.87;;;;;;;;;;5035274;28;20060;-66
2024/01/28 05:29:25;;;;;;;90.60;54.80;;;;;;;;;;5046902;28;20029;-67
2024/01/28 05:31:52;;;;;;;87.83;54.57;;;;;;;;;;5048214;28;20402;-66
2024/01/28 05:34:18;;;;;;;95.93;56.90;;;;;;;;;;5048049;28;20121;-66
2024/01/28 05:36:49;;;;;;;99.83;55.00;;;;;;;;;;5046760;28;20076;-66
2024/01/28 05:39:15;;;;;;;88.77;53.47;;;;;;;;;;5047979;28;20037;-66
2024/01/28 05:41:41;;;;;;;89.00;54.23;;;;;;;;;;5048642;28;20386;-66
2024/01/28 05:44:07;;;;;;;103.00;56.17;;;;;;;;;;5048215;28;20398;-66
2024/01/28 05:46:37;;;;;;;139.73;60.30;;;;;;;;;;5048064;28;20456;-66
2024/01/28 05:49:03;;;;;;;82.87;53.23;;;;;;;;;;5048109;28;20086;-66
2024/01/28 05:51:30;;;;;;;138.37;56.80;;;;;;;;;;5048840;28;20080;-66
2024/01/28 05:53:57;;;;;;;80.57;53.57;;;;;;;;;;5048170;28;20135;-66
2024/01/28 05:56:23;;;;;;;103.03;56.07;;;;;;;;;;5046882;28;20119;-66
2024/01/28 05:58:49;;;;;;;86.60;54.20;;;;;;;;;;5035263;28;20578;-66
2024/01/28 06:01:15;;;;;;;89.97;54.00;;;;;;;;;;5057740;28;20502;-66
2024/01/28 06:03:41;;;;;;;91.40;54.33;;;;;;;;;;5039334;28;20387;-66
2024/01/28 06:06:07;;;;;;;90.77;55.33;;;;;;;;;;5044617;28;20037;-66
2024/01/28 06:08:34;;;;;;;85.57;52.63;;;;;;;;;;5048341;28;20093;-66
2024/01/28 06:11:00;;;;;;;99.83;54.50;;;;;;;;;;5047062;28;20123;-66
2024/01/28 06:13:29;;;;;;;89.17;52.23;;;;;;;;;;5035151;28;20037;-66
2024/01/28 06:15:55;;;;;;;90.30;52.30;;;;;;;;;;5033366;28;20036;-67
2024/01/28 06:18:21;;;;;;;91.50;53.20;;;;;;;;;;5063435;28;20108;-66
2024/01/28 06:20:47;;;;;;;97.87;57.23;;;;;;;;;;5048110;28;20037;-67
2024/01/28 06:23:13;;;;;;;99.70;57.80;;;;;;;;;;5048257;28;20104;-66
2024/01/28 06:25:39;;;;;;;104.43;57.03;;;;;;;;;;5038961;28;20108;-66
2024/01/28 06:28:05;;;;;;;100.83;56.30;;;;;;;;;;5043990;28;20463;-66
2024/01/28 06:30:35;;;;;;;100.23;56.43;;;;;;;;;;5048385;28;20075;-66
2024/01/28 06:33:02;;;;;;;96.57;58.50;;;;;;;;;;5046316;28;20036;-66
2024/01/28 06:35:28;;;;;;;100.43;57.53;;;;;;;;;;5050274;28;20032;-67
2024/01/28 06:37:54;;;;;;;96.77;56.07;;;;;;;;;;5052675;28;20443;-66
2024/01/28 06:40:20;;;;;;;143.77;61.93;;;;;;;;;;5051231;28;20123;-66
2024/01/28 06:42:46;;;;;;;89.73;54.27;;;;;;;;;;5052331;28;20021;-66
2024/01/28 06:45:12;;;;;;;100.60;59.87;;;;;;;;;;5051955;28;20021;-66
2024/01/28 06:47:38;;;;;;;108.00;57.43;;;;;;;;;;5047995;28;20655;-66
2024/01/28 06:50:05;;;;;;;96.87;55.67;;;;;;;;;;5048247;28;20021;-66
2024/01/28 06:52:31;;;;;;;91.63;56.67;;;;;;;;;;5046462;28;20028;-67
2024/01/28 06:54:59;;;;;;;92.10;53.87;;;;;;;;;;5046700;28;20028;-67
2024/01/28 06:57:25;;;;;;;88.60;56.20;;;;;;;;;;5046967;28;20124;-66
2024/01/28 06:59:51;;;;;;;96.40;52.90;;;;;;;;;;5040531;28;20264;-66
2024/01/28 07:02:17;;;;;;;85.30;51.07;;;;;;;;;;5039134;28;20036;-65
2024/01/28 07:04:43;;;;;;;96.30;51.43;;;;;;;;;;5045424;28;20027;-65
2024/01/28 07:07:09;;;;;;;91.03;54.13;;;;;;;;;;5051806;28;20064;-65
2024/01/28 07:09:37;;;;;;;83.30;50.53;;;;;;;;;;5046566;28;20029;-66
2024/01/28 07:12:05;;;;;;;81.97;47.97;;;;;;;;;;5041856;28;20034;-65
2024/01/28 07:14:31;;;;;;;90.67;48.33;;;;;;;;;;5041700;28;20095;-66
2024/01/28 07:16:57;;;;;;;97.20;54.37;;;;;;;;;;5050746;28;20055;-65
2024/01/28 07:19:23;;;;;;;92.13;53.23;;;;;;;;;;5049194;28;20119;-65
2024/01/28 07:21:51;;;;;;;88.90;52.90;;;;;;;;;;5050730;28;20096;-65
2024/01/28 07:24:17;;;;;;;87.20;49.57;;;;;;;;;;5051723;28;20029;-65
2024/01/28 07:26:43;;;;;;;91.80;52.17;;;;;;;;;;5046483;28;20032;-66
2024/01/28 07:29:10;;;;;;;83.47;52.13;;;;;;;;;;5036962;28;20469;-65
2024/01/28 07:31:36;;;;;;;93.07;51.10;;;;;;;;;;5050142;28;20021;-65
2024/01/28 07:34:03;;;;;;;111.43;54.50;;;;;;;;;;5050320;28;20063;-66
2024/01/28 07:36:31;;;;;;;84.50;51.30;;;;;;;;;;5050712;28;20097;-65
2024/01/28 07:38:57;;;;;;;79.30;50.73;;;;;;;;;;5049223;28;20029;-66
2024/01/28 07:41:24;;;;;;;86.40;52.73;;;;;;;;;;5037890;28;20059;-65
2024/01/28 07:43:50;;;;;;;84.60;52.10;;;;;;;;;;5050599;28;20608;-65
2024/01/28 07:46:17;;;;;;;114.03;52.60;;;;;;;;;;5050188;28;20435;-65
2024/01/28 07:48:43;;;;;;;84.43;50.27;;;;;;;;;;5044272;28;20021;-65
2024/01/28 07:51:09;;;;;;;81.37;49.67;;;;;;;;;;5036665;28;20087;-66
2024/01/28 07:53:35;;;;;;;93.37;48.53;;;;;;;;;;5050350;28;20156;-65
2024/01/28 07:56:02;;;;;;;87.20;50.17;;;;;;;;;;5050823;28;20163;-66
2024/01/28 07:58:28;;;;;;;89.87;50.37;;;;;;;;;;5051304;28;20045;-65
2024/01/28 08:00:55;;;;;;;75.27;47.47;;;;;;;;;;5051087;28;20028;-66
2024/01/28 08:03:21;;;;;;;78.73;47.97;;;;;;;;;;5038236;28;20065;-66
2024/01/28 08:05:47;;;;;;;79.23;44.83;;;;;;;;;;5050684;28;20107;-66
2024/01/28 08:08:13;;;;;;;78.77;48.00;;;;;;;;;;5037530;28;20021;-66
2024/01/28 08:10:39;;;;;;;76.90;47.60;;;;;;;;;;5049597;28;20038;-66
2024/01/28 08:13:05;;;;;;;74.00;45.83;;;;;;;;;;5051087;28;20029;-66
2024/01/28 08:15:31;;;;;;;69.17;44.87;;;;;;;;;;5049796;28;20121;-66
2024/01/28 08:17:57;;;;;;;73.47;45.93;;;;;;;;;;5050741;28;20094;-66
2024/01/28 08:20:23;;;;;;;68.50;44.53;;;;;;;;;;5051148;28;20021;-66
2024/01/28 08:22:50;;;;;;;82.03;46.30;;;;;;;;;;5050748;28;20801;-66
2024/01/28 08:25:16;;;;;;;120.80;50.30;;;;;;;;;;5051049;28;20060;-65
2024/01/28 08:27:44;;;;;;;84.20;49.60;;;;;;;;;;5050909;28;20474;-65
2024/01/28 08:30:11;;;;;;;71.80;44.80;;;;;;;;;;5050368;28;20024;-65
2024/01/28 08:32:37;;;;;;;97.97;45.70;;;;;;;;;;5047168;28;20025;-66
2024/01/28 08:35:03;;;;;;;73.87;46.10;;;;;;;;;;5051073;28;20112;-65
2024/01/28 08:37:29;;;;;;;79.50;46.57;;;;;;;;;;5050703;28;20113;-64
2024/01/28 08:39:56;;;;;;;65.47;43.87;;;;;;;;;;5032207;28;20463;-65
2024/01/28 08:42:22;;;;;;;70.00;44.53;;;;;;;;;;5050065;28;20035;-65
2024/01/28 08:44:48;;;;;;;73.83;44.97;;;;;;;;;;5047029;28;20040;-65
2024/01/28 08:47:14;;;;;;;67.67;44.00;;;;;;;;;;5049320;28;20467;-65
2024/01/28 08:49:40;;;;;;;70.30;43.07;;;;;;;;;;5049524;28;20550;-65
2024/01/28 08:52:06;;;;;;;70.07;46.00;;;;;;;;;;5048627;28;20096;-65
2024/01/28 08:54:33;;;;;;;68.00;43.87;;;;;;;;;;5050665;28;20082;-65
2024/01/28 08:56:59;;;;;;;71.03;45.00;;;;;;;;;;5049267;28;20526;-65
2024/01/28 08:59:26;;;;;;;64.87;42.23;;;;;;;;;;5048640;28;20139;-65
2024/01/28 09:01:52;;;;;;;67.63;45.07;;;;;;;;;;5048458;28;20121;-64
2024/01/28 09:04:18;;;;;;;71.17;46.30;;;;;;;;;;5048683;28;20025;-64
2024/01/28 09:06:44;;;;;;;72.10;45.03;;;;;;;;;;5048702;28;20031;-66
2024/01/28 09:09:11;;;;;;;70.57;42.93;;;;;;;;;;5048383;28;20029;-65
2024/01/28 09:11:37;;;;;;;67.73;42.73;;;;;;;;;;5048917;28;20231;-65
2024/01/28 09:14:03;;;;;;;67.00;42.20;;;;;;;;;;5050131;28;20045;-65
2024/01/28 09:16:29;;;;;;;66.30;43.00;;;;;;;;;;5049257;28;20029;-65
2024/01/28 09:18:55;;;;;;;68.47;40.73;;;;;;;;;;5051554;28;20386;-65
2024/01/28 09:21:21;;;;;;;62.13;40.57;;;;;;;;;;5051431;28;20029;-65
2024/01/28 09:23:47;;;;;;;65.90;41.50;;;;;;;;;;5051392;28;20033;-65
2024/01/28 09:26:13;;;;;;;70.10;43.93;;;;;;;;;;5051808;28;20029;-65
2024/01/28 09:28:40;;;;;;;66.37;44.20;;;;;;;;;;5050561;28;20032;-65
2024/01/28 09:31:09;;;;;;;69.97;43.83;;;;;;;;;;5051772;28;20052;-65
2024/01/28 09:33:36;;;;;;;65.30;44.67;;;;;;;;;;5051165;28;20475;-65
2024/01/28 09:36:02;;;;;;;73.40;46.10;;;;;;;;;;5051436;28;20033;-65
2024/01/28 09:38:28;;;;;;;68.40;44.70;;;;;;;;;;5051584;28;20040;-65
2024/01/28 09:40:54;;;;;;;73.23;45.80;;;;;;;;;;5051580;28;20017;-65
2024/01/28 09:43:29;;;;;;;78.13;48.43;;;;;;;;;;5038941;28;20029;-64
2024/01/28 09:46:00;;;;;;;73.17;46.30;;;;;;;;;;5051292;28;20025;-64
2024/01/28 09:48:27;;;;;;;71.77;46.23;;;;;;;;;;5051572;28;20028;-65
2024/01/28 09:50:53;;;;;;;73.93;47.10;;;;;;;;;;5051371;28;20451;-65
2024/01/28 09:53:19;;;;;;;74.67;46.83;;;;;;;;;;5051491;28;20125;-65
2024/01/28 09:55:45;;;;;;;78.00;46.30;;;;;;;;;;5051251;28;20045;-65
2024/01/28 09:58:11;;;;;;;77.53;47.03;;;;;;;;;;5049917;28;20177;-65
2024/01/28 10:00:37;;;;;;;82.93;49.13;;;;;;;;;;5049901;28;20455;-65
2024/01/28 10:03:03;;;;;;;81.77;48.97;;;;;;;;;;5050691;28;20399;-65
2024/01/28 10:05:29;;;;;;;89.27;51.27;;;;;;;;;;5050761;28;20028;-65
2024/01/28 10:08:00;;;;;;;76.17;48.07;;;;;;;;;;5048674;28;20033;-65
2024/01/28 10:10:26;;;;;;;83.23;49.87;;;;;;;;;;5051071;28;20351;-66
2024/01/28 10:12:55;;;;;;;82.37;50.27;;;;;;;;;;5049454;28;20029;-66
2024/01/28 10:15:21;;;;;;;85.80;51.57;;;;;;;;;;5055813;28;20467;-66
2024/01/28 10:17:48;;;;;;;86.43;52.23;;;;;;;;;;5055403;28;20094;-66
2024/01/28 10:20:18;;;;;;;82.80;49.90;;;;;;;;;;5055123;28;20470;-67
2024/01/28 10:22:44;;;;;;;81.37;50.50;;;;;;;;;;5055304;28;20028;-66
2024/01/28 10:25:16;;;;;;;87.20;52.20;;;;;;;;;;5054674;28;20025;-66
2024/01/28 10:27:43;;;;;;;88.67;51.60;;;;;;;;;;5044344;28;20037;-66
2024/01/28 10:30:10;;;;;;;84.20;50.80;;;;;;;;;;5054961;28;20028;-66
2024/01/28 10:32:37;;;;;;;88.90;52.40;;;;;;;;;;5053329;28;20375;-66
2024/01/28 10:35:03;;;;;;;87.67;52.53;;;;;;;;;;5054742;28;20041;-66
2024/01/28 10:37:33;;;;;;;90.03;53.87;;;;;;;;;;5054637;28;20048;-66
2024/01/28 10:40:03;;;;;;;89.77;54.60;;;;;;;;;;5050245;28;20545;-66
2024/01/28 10:42:30;;;;;;;89.10;53.57;;;;;;;;;;5054631;28;20021;-65
2024/01/28 10:44:56;;;;;;;88.57;54.30;;;;;;;;;;5054596;28;20078;-66
2024/01/28 10:47:25;;;;;;;86.20;53.40;;;;;;;;;;5054436;28;20544;-65
2024/01/28 10:49:56;;;;;;;85.60;53.03;;;;;;;;;;5054378;28;20035;-66
2024/01/28 10:52:32;;;;;;;85.37;52.77;;;;;;;;;;5054181;28;20037;-65
2024/01/28 10:55:02;;;;;;;87.23;54.00;;;;;;;;;;5054282;28;20040;-65
2024/01/28 10:57:28;;;;;;;86.07;53.17;;;;;;;;;;5051261;28;20029;-65
2024/01/28 10:59:54;;;;;;;91.00;56.67;;;;;;;;;;5053859;28;20122;-65
2024/01/28 11:02:21;;;;;;;88.13;53.27;;;;;;;;;;5054344;28;20037;-65
2024/01/28 11:04:48;;;;;;;83.80;52.40;;;;;;;;;;5054086;28;20041;-65
2024/01/28 11:07:19;;;;;;;84.50;53.07;;;;;;;;;;5054426;28;20351;-65
2024/01/28 11:09:46;;;;;;;86.10;54.17;;;;;;;;;;5049799;28;20522;-65
2024/01/28 11:12:13;;;;;;;82.70;52.63;;;;;;;;;;5053639;28;20055;-65
2024/01/28 11:14:39;;;;;;;89.10;53.50;;;;;;;;;;5054119;28;20040;-66
2024/01/28 11:17:05;;;;;;;85.40;53.60;;;;;;;;;;5049655;28;20021;-65
2024/01/28 11:19:31;;;;;;;87.40;52.70;;;;;;;;;;5049334;28;20032;-66
2024/01/28 11:22:04;;;;;;;82.63;52.90;;;;;;;;;;5046387;28;20064;-65
2024/01/28 11:24:30;;;;;;;89.53;53.20;;;;;;;;;;5048787;28;20025;-66
2024/01/28 11:26:58;;;;;;;90.17;53.33;;;;;;;;;;5050962;28;20031;-65
2024/01/28 11:29:31;;;;;;;85.07;52.13;;;;;;;;;;5050166;28;20029;-65
2024/01/28 11:31:58;;;;;;;91.43;54.80;;;;;;;;;;5046946;28;20025;-65
2024/01/28 11:34:24;;;;;;;92.33;56.57;;;;;;;;;;5050258;28;20377;-66
2024/01/28 11:36:51;;;;;;;90.47;54.27;;;;;;;;;;5050550;28;20021;-66
2024/01/28 11:39:24;;;;;;;92.65;55.00;;;;;;;;;;5053399;28;20512;-67
2024/01/28 11:41:52;;;;;;;92.10;55.67;;;;;;;;;;5053478;28;20024;-66
2024/01/28 11:44:18;;;;;;;92.47;55.97;;;;;;;;;;5053683;28;20475;-66
2024/01/28 11:46:44;;;;;;;92.97;56.45;;;;;;;;;;5047811;28;20018;-65
2024/01/28 11:49:11;;;;;;;102.72;59.63;;;;;;;;;;5053634;28;20032;-65
2024/01/28 11:51:38;;;;;;;98.77;61.87;;;;;;;;;;5043786;28;20036;-66
2024/01/28 11:54:04;;;;;;;93.97;58.03;;;;;;;;;;5041898;28;20064;-65
2024/01/28 11:56:34;;;;;;;100.03;58.28;;;;;;;;;;5049544;28;20374;-65
2024/01/28 11:59:00;;;;;;;99.63;59.93;;;;;;;;;;5052990;28;20045;-65
2024/01/28 12:01:26;;;;;;;98.00;58.60;;;;;;;;;;5053034;28;20548;-65
2024/01/28 12:03:59;;;;;;;94.40;57.63;;;;;;;;;;5052634;28;20475;-65
2024/01/28 12:06:27;;;;;;;96.77;58.77;;;;;;;;;;5052983;28;20412;-66
2024/01/28 12:08:53;;;;;;;99.55;59.50;;;;;;;;;;5052849;28;20478;-66
2024/01/28 12:11:24;;;;;;;91.95;56.58;;;;;;;;;;5039840;28;20026;-66
2024/01/28 12:13:50;;;;;;;95.80;59.80;;;;;;;;;;5051262;28;20522;-66
2024/01/28 12:16:20;;;;;;;86.70;56.85;;;;;;;;;;5052758;28;20024;-66
2024/01/28 12:18:46;;;;;;;97.50;58.55;;;;;;;;;;5044745;28;20091;-65
2024/01/28 12:21:16;;;;;;;99.00;58.70;;;;;;;;;;5032824;28;20459;-65
2024/01/28 12:23:50;;;;;;;100.10;58.37;;;;;;;;;;5048226;28;20025;-66
2024/01/28 12:26:16;;;;;;;95.07;57.83;;;;;;;;;;5051396;28;20043;-66
2024/01/28 12:28:43;;;;;;;97.13;60.05;;;;;;;;;;5052893;28;20379;-66
2024/01/28 12:31:10;;;;;;;90.60;58.20;;;;;;;;;;5052974;28;20024;-66
2024/01/28 12:33:36;;;;;;;96.53;57.90;;;;;;;;;;5051662;28;20065;-66
2024/01/28 12:36:02;;;;;;;95.00;57.37;;;;;;;;;;5050789;28;20024;-66
2024/01/28 12:38:28;;;;;;;94.63;57.60;;;;;;;;;;5051161;28;20504;-66
2024/01/28 12:40:54;;;;;;;90.00;56.93;;;;;;;;;;5052289;28;20022;-66
2024/01/28 12:43:20;;;;;;;91.93;56.17;;;;;;;;;;5052344;28;20471;-66
2024/01/28 12:45:46;;;;;;;96.13;57.87;;;;;;;;;;5051785;28;20031;-66
2024/01/28 12:48:12;;;;;;;91.93;57.37;;;;;;;;;;5052056;28;20117;-66
2024/01/28 12:50:41;;;;;;;98.83;57.03;;;;;;;;;;5050765;28;20104;-66
2024/01/28 12:53:07;;;;;;;90.13;56.80;;;;;;;;;;5051935;28;20076;-66
2024/01/28 12:55:33;;;;;;;89.07;57.97;;;;;;;;;;5052045;28;20493;-66
2024/01/28 12:57:59;;;;;;;98.47;60.65;;;;;;;;;;5052041;28;20062;-65
2024/01/28 13:00:25;;;;;;;95.10;56.60;;;;;;;;;;5052488;28;20043;-66
2024/01/28 13:02:51;;;;;;;99.13;60.87;;;;;;;;;;5052183;28;20383;-66
2024/01/28 13:05:17;;;;;;;96.63;60.77;;;;;;;;;;5046966;28;20148;-65
2024/01/28 13:07:43;;;;;;;97.63;61.13;;;;;;;;;;5050512;28;20104;-66
2024/01/28 13:10:09;;;;;;;103.63;64.20;;;;;;;;;;5051562;28;20108;-65
2024/01/28 13:12:41;;;;;;;102.57;63.65;;;;;;;;;;5047047;28;20021;-66
2024/01/28 13:15:11;;;;;;;100.77;63.47;;;;;;;;;;5049765;28;20041;-65
2024/01/28 13:17:41;;;;;;;103.28;63.88;;;;;;;;;;5044062;28;20600;-66
2024/01/28 13:20:08;;;;;;;105.33;63.37;;;;;;;;;;5050894;28;20051;-66
2024/01/28 13:22:35;;;;;;;103.35;63.75;;;;;;;;;;5051984;28;20382;-66
2024/01/28 13:25:01;;;;;;;100.75;61.67;;;;;;;;;;5037639;28;20029;-65
2024/01/28 13:27:27;;;;;;;98.40;62.07;;;;;;;;;;5051557;28;20377;-65
2024/01/28 13:29:53;;;;;;;97.15;61.30;;;;;;;;;;5051918;28;20182;-65
2024/01/28 13:32:19;;;;;;;104.77;65.17;;;;;;;;;;5051674;28;20025;-65
2024/01/28 13:34:45;;;;;;;106.38;65.68;;;;;;;;;;5051961;28;20041;-66
2024/01/28 13:37:12;;;;;;;103.72;64.63;;;;;;;;;;5051479;28;20127;-65
2024/01/28 13:39:44;;;;;;;106.28;64.63;;;;;;;;;;5051487;28;20111;-66
2024/01/28 13:42:10;;;;;;;97.23;62.43;;;;;;;;;;5051492;28;20029;-65
2024/01/28 13:44:39;;;;;;;102.40;66.88;;;;;;;;;;5053291;28;20025;-65
2024/01/28 13:47:05;;;;;;;103.70;65.93;;;;;;;;;;5055906;28;20125;-65
2024/01/28 13:49:31;;;;;;;105.70;65.97;;;;;;;;;;5053580;28;20036;-65
2024/01/28 13:51:57;;;;;;;103.07;66.57;;;;;;;;;;5052687;28;20066;-65
2024/01/28 13:54:23;;;;;;;104.67;64.07;;;;;;;;;;5037571;28;20078;-65
2024/01/28 13:56:49;;;;;;;96.60;60.45;;;;;;;;;;5052292;28;20025;-65
2024/01/28 13:59:16;;;;;;;97.07;61.30;;;;;;;;;;5042693;28;20049;-65
2024/01/28 14:01:42;;;;;;;96.68;61.20;;;;;;;;;;5053841;28;20063;-65
2024/01/28 14:04:08;;;;;;;103.03;63.50;;;;;;;;;;5049448;28;20065;-65
2024/01/28 14:06:34;;;;;;;104.10;64.53;;;;;;;;;;5046727;28;20467;-65
2024/01/28 14:09:00;;;;;;;107.38;66.40;;;;;;;;;;5055122;28;20360;-65
2024/01/28 14:11:26;;;;;;;110.28;64.07;;;;;;;;;;5055202;28;20036;-65
2024/01/28 14:13:52;;;;;;;103.43;61.20;;;;;;;;;;5052991;28;20115;-64
2024/01/28 14:16:18;;;;;;;103.90;63.30;;;;;;;;;;5043106;28;20564;-65
2024/01/28 14:18:44;;;;;;;101.47;63.70;;;;;;;;;;5053673;28;20021;-65
2024/01/28 14:21:11;;;;;;;108.63;65.03;;;;;;;;;;5055111;28;20025;-65
2024/01/28 14:23:37;;;;;;;104.03;64.68;;;;;;;;;;5054695;28;20021;-64
2024/01/28 14:26:06;;;;;;;104.93;65.28;;;;;;;;;;5054495;28;20336;-65